sensor_id;sensor_type;location;lat;lon;timestamp;P1;durP1;ratioP1;P2;durP2;ratioP2
16524;SDS011;8375;33.594;-117.718;2024-01-10T00:00:52;2.00;;;1.00;;
16524;SDS011;8375;33.594;-117.718;2024-01-10T00:03:22;2.23;;;0.70;;
16524;SDS011;8375;33.594;-117.718;2024-01-10T00:05:51;1.67;;;1.00;;
16524;SDS011;8375;33.594;-117.718;2024-01-10T00:08:20;2.63;;;0.90;;
16524;SDS011;8375;33.594;-117.718;2024-01-10T00:10:49;2.43;;;0.90;;
16524;SDS011;8375;33.594;-117.718;2024-01-10T00:13:17;3.87;;;0.87;;
16524;SDS011;8375;33.594;-117.718;2024-01-10T00:15:46;3.77;;;1.00;;
16524;SDS011;8375;33.594;-117.718;2024-01-10T00:18:15;2.43;;;0.90;;
16524;SDS011;8375;33.594;-117.718;2024-01-10T00:20:45;2.17;;;1.00;;
16524;SDS011;8375;33.594;-117.718;2024-01-10T00:23:14;2.53;;;1.00;;
16524;SDS011;8375;33.594;-117.718;2024-01-10T00:25:43;2.17;;;0.90;;
16524;SDS011;8375;33.594;-117.718;2024-01-10T00:28:11;6.47;;;1.83;;
16524;SDS011;8375;33.594;-117.718;2024-01-10T00:30:42;1.10;;;0.87;;
16524;SDS011;8375;33.594;-117.718;2024-01-10T00:33:10;3.03;;;0.77;;
16524;SDS011;8375;33.594;-117.718;2024-01-10T00:35:39;1.73;;;0.80;;
16524;SDS011;8375;33.594;-117.718;2024-01-10T00:38:09;4.10;;;1.23;;
16524;SDS011;8375;33.594;-117.718;2024-01-10T00:40:38;2.93;;;1.03;;
16524;SDS011;8375;33.594;-117.718;2024-01-10T00:43:06;1.03;;;0.80;;
16524;SDS011;8375;33.594;-117.718;2024-01-10T00:45:35;2.83;;;0.97;;
16524;SDS011;8375;33.594;-117.718;2024-01-10T00:48:06;2.50;;;0.90;;
16524;SDS011;8375;33.594;-117.718;2024-01-10T00:50:35;2.90;;;0.83;;
16524;SDS011;8375;33.594;-117.718;2024-01-10T00:53:06;1.87;;;0.93;;
16524;SDS011;8375;33.594;-117.718;2024-01-10T00:55:37;2.53;;;1.13;;
16524;SDS011;8375;33.594;-117.718;2024-01-10T00:58:11;2.90;;;1.10;;
16524;SDS011;8375;33.594;-117.718;2024-01-10T01:00:43;13.13;;;1.63;;
16524;SDS011;8375;33.594;-117.718;2024-01-10T01:03:13;1.73;;;1.00;;
16524;SDS011;8375;33.594;-117.718;2024-01-10T01:05:42;2.10;;;0.80;;
16524;SDS011;8375;33.594;-117.718;2024-01-10T01:08:15;1.63;;;1.00;;
16524;SDS011;8375;33.594;-117.718;2024-01-10T01:10:48;2.40;;;0.80;;
16524;SDS011;8375;33.594;-117.718;2024-01-10T01:13:19;3.30;;;0.93;;
16524;SDS011;8375;33.594;-117.718;2024-01-10T01:15:53;3.10;;;0.93;;
16524;SDS011;8375;33.594;-117.718;2024-01-10T01:18:27;2.40;;;0.80;;
16524;SDS011;8375;33.594;-117.718;2024-01-10T01:20:57;4.23;;;1.30;;
16524;SDS011;8375;33.594;-117.718;2024-01-10T01:23:28;1.77;;;0.87;;
16524;SDS011;8375;33.594;-117.718;2024-01-10T01:26:01;1.43;;;0.80;;
16524;SDS011;8375;33.594;-117.718;2024-01-10T01:28:32;1.87;;;0.90;;
16524;SDS011;8375;33.594;-117.718;2024-01-10T01:31:03;3.43;;;1.20;;
16524;SDS011;8375;33.594;-117.718;2024-01-10T01:33:35;5.27;;;1.33;;
16524;SDS011;8375;33.594;-117.718;2024-01-10T01:36:07;1.83;;;1.00;;
16524;SDS011;8375;33.594;-117.718;2024-01-10T01:38:41;3.23;;;0.93;;
16524;SDS011;8375;33.594;-117.718;2024-01-10T01:41:14;4.10;;;1.10;;
16524;SDS011;8375;33.594;-117.718;2024-01-10T01:43:45;2.00;;;1.00;;
16524;SDS011;8375;33.594;-117.718;2024-01-10T01:46:19;2.40;;;1.10;;
16524;SDS011;8375;33.594;-117.718;2024-01-10T01:48:50;3.60;;;1.37;;
16524;SDS011;8375;33.594;-117.718;2024-01-10T01:51:23;4.27;;;1.20;;
16524;SDS011;8375;33.594;-117.718;2024-01-10T01:54:06;4.03;;;1.17;;
16524;SDS011;8375;33.594;-117.718;2024-01-10T01:56:39;3.67;;;1.00;;
16524;SDS011;8375;33.594;-117.718;2024-01-10T01:59:10;3.23;;;0.90;;
16524;SDS011;8375;33.594;-117.718;2024-01-10T02:01:44;1.33;;;0.93;;
16524;SDS011;8375;33.594;-117.718;2024-01-10T02:04:16;1.90;;;1.20;;
16524;SDS011;8375;33.594;-117.718;2024-01-10T02:06:47;2.57;;;1.03;;
16524;SDS011;8375;33.594;-117.718;2024-01-10T02:09:27;4.63;;;1.10;;
16524;SDS011;8375;33.594;-117.718;2024-01-10T02:12:00;2.10;;;0.90;;
16524;SDS011;8375;33.594;-117.718;2024-01-10T02:14:37;3.47;;;0.80;;
16524;SDS011;8375;33.594;-117.718;2024-01-10T02:17:07;4.90;;;1.23;;
16524;SDS011;8375;33.594;-117.718;2024-01-10T02:19:39;3.80;;;1.10;;
16524;SDS011;8375;33.594;-117.718;2024-01-10T02:22:10;4.33;;;1.10;;
16524;SDS011;8375;33.594;-117.718;2024-01-10T02:24:43;2.93;;;1.27;;
16524;SDS011;8375;33.594;-117.718;2024-01-10T02:27:16;1.57;;;1.10;;
16524;SDS011;8375;33.594;-117.718;2024-01-10T02:29:47;3.47;;;0.90;;
16524;SDS011;8375;33.594;-117.718;2024-01-10T02:32:19;4.90;;;1.23;;
16524;SDS011;8375;33.594;-117.718;2024-01-10T02:34:49;3.13;;;1.00;;
16524;SDS011;8375;33.594;-117.718;2024-01-10T02:37:20;3.47;;;1.27;;
16524;SDS011;8375;33.594;-117.718;2024-01-10T02:39:52;3.70;;;1.40;;
16524;SDS011;8375;33.594;-117.718;2024-01-10T02:42:28;3.80;;;1.40;;
16524;SDS011;8375;33.594;-117.718;2024-01-10T02:44:58;2.73;;;1.63;;
16524;SDS011;8375;33.594;-117.718;2024-01-10T02:47:29;4.13;;;1.43;;
16524;SDS011;8375;33.594;-117.718;2024-01-10T02:50:00;4.33;;;1.53;;
16524;SDS011;8375;33.594;-117.718;2024-01-10T02:52:30;2.40;;;1.50;;
16524;SDS011;8375;33.594;-117.718;2024-01-10T02:55:01;5.77;;;1.77;;
16524;SDS011;8375;33.594;-117.718;2024-01-10T02:57:37;2.87;;;1.77;;
16524;SDS011;8375;33.594;-117.718;2024-01-10T03:00:09;3.73;;;1.40;;
16524;SDS011;8375;33.594;-117.718;2024-01-10T03:02:43;4.37;;;1.70;;
16524;SDS011;8375;33.594;-117.718;2024-01-10T03:05:14;5.37;;;2.03;;
16524;SDS011;8375;33.594;-117.718;2024-01-10T03:07:45;4.73;;;1.60;;
16524;SDS011;8375;33.594;-117.718;2024-01-10T03:10:15;3.97;;;1.67;;
16524;SDS011;8375;33.594;-117.718;2024-01-10T03:12:48;3.00;;;1.80;;
16524;SDS011;8375;33.594;-117.718;2024-01-10T03:15:19;3.17;;;1.83;;
16524;SDS011;8375;33.594;-117.718;2024-01-10T03:17:51;3.13;;;1.93;;
16524;SDS011;8375;33.594;-117.718;2024-01-10T03:20:21;3.37;;;1.90;;
16524;SDS011;8375;33.594;-117.718;2024-01-10T03:22:54;2.80;;;1.87;;
16524;SDS011;8375;33.594;-117.718;2024-01-10T03:25:25;4.73;;;1.77;;
16524;SDS011;8375;33.594;-117.718;2024-01-10T03:27:56;4.30;;;1.80;;
16524;SDS011;8375;33.594;-117.718;2024-01-10T03:30:25;3.93;;;2.20;;
16524;SDS011;8375;33.594;-117.718;2024-01-10T03:32:54;4.43;;;2.00;;
16524;SDS011;8375;33.594;-117.718;2024-01-10T03:35:22;4.53;;;1.93;;
16524;SDS011;8375;33.594;-117.718;2024-01-10T03:37:51;4.83;;;2.10;;
16524;SDS011;8375;33.594;-117.718;2024-01-10T03:40:20;3.73;;;2.03;;
16524;SDS011;8375;33.594;-117.718;2024-01-10T03:42:49;3.30;;;2.10;;
16524;SDS011;8375;33.594;-117.718;2024-01-10T03:45:19;3.80;;;1.80;;
16524;SDS011;8375;33.594;-117.718;2024-01-10T03:47:48;3.13;;;1.83;;
16524;SDS011;8375;33.594;-117.718;2024-01-10T03:50:17;2.07;;;1.60;;
16524;SDS011;8375;33.594;-117.718;2024-01-10T03:52:46;4.10;;;1.63;;
16524;SDS011;8375;33.594;-117.718;2024-01-10T03:55:15;3.67;;;1.77;;
16524;SDS011;8375;33.594;-117.718;2024-01-10T03:57:44;2.93;;;1.70;;
16524;SDS011;8375;33.594;-117.718;2024-01-10T04:00:13;4.30;;;1.90;;
16524;SDS011;8375;33.594;-117.718;2024-01-10T04:02:43;3.07;;;1.73;;
16524;SDS011;8375;33.594;-117.718;2024-01-10T04:05:12;5.57;;;2.07;;
16524;SDS011;8375;33.594;-117.718;2024-01-10T04:07:40;3.47;;;1.90;;
16524;SDS011;8375;33.594;-117.718;2024-01-10T04:10:10;4.30;;;1.67;;
16524;SDS011;8375;33.594;-117.718;2024-01-10T04:12:39;4.67;;;1.90;;
16524;SDS011;8375;33.594;-117.718;2024-01-10T04:15:09;4.00;;;1.70;;
16524;SDS011;8375;33.594;-117.718;2024-01-10T04:17:38;3.13;;;2.00;;
16524;SDS011;8375;33.594;-117.718;2024-01-10T04:20:09;5.00;;;1.90;;
16524;SDS011;8375;33.594;-117.718;2024-01-10T04:22:38;3.83;;;1.80;;
16524;SDS011;8375;33.594;-117.718;2024-01-10T04:25:07;3.63;;;1.50;;
16524;SDS011;8375;33.594;-117.718;2024-01-10T04:27:36;4.03;;;1.67;;
16524;SDS011;8375;33.594;-117.718;2024-01-10T04:30:05;5.10;;;1.60;;
16524;SDS011;8375;33.594;-117.718;2024-01-10T04:32:34;5.37;;;2.07;;
16524;SDS011;8375;33.594;-117.718;2024-01-10T04:35:03;4.87;;;1.77;;
16524;SDS011;8375;33.594;-117.718;2024-01-10T04:37:34;2.83;;;2.10;;
16524;SDS011;8375;33.594;-117.718;2024-01-10T04:40:02;5.77;;;2.20;;
16524;SDS011;8375;33.594;-117.718;2024-01-10T04:42:32;4.20;;;1.93;;
16524;SDS011;8375;33.594;-117.718;2024-01-10T04:45:00;2.67;;;2.13;;
16524;SDS011;8375;33.594;-117.718;2024-01-10T04:47:29;4.60;;;2.00;;
16524;SDS011;8375;33.594;-117.718;2024-01-10T04:49:58;4.57;;;2.40;;
16524;SDS011;8375;33.594;-117.718;2024-01-10T04:52:26;5.83;;;2.50;;
16524;SDS011;8375;33.594;-117.718;2024-01-10T04:54:56;3.10;;;1.90;;
16524;SDS011;8375;33.594;-117.718;2024-01-10T04:57:25;3.83;;;2.53;;
16524;SDS011;8375;33.594;-117.718;2024-01-10T04:59:54;6.53;;;2.50;;
16524;SDS011;8375;33.594;-117.718;2024-01-10T05:02:23;3.93;;;2.37;;
16524;SDS011;8375;33.594;-117.718;2024-01-10T05:04:51;5.70;;;2.70;;
16524;SDS011;8375;33.594;-117.718;2024-01-10T05:07:20;7.07;;;3.07;;
16524;SDS011;8375;33.594;-117.718;2024-01-10T05:09:48;4.37;;;2.60;;
16524;SDS011;8375;33.594;-117.718;2024-01-10T05:12:19;5.33;;;3.20;;
16524;SDS011;8375;33.594;-117.718;2024-01-10T05:14:47;6.80;;;3.20;;
16524;SDS011;8375;33.594;-117.718;2024-01-10T05:17:16;6.87;;;2.70;;
16524;SDS011;8375;33.594;-117.718;2024-01-10T05:19:45;4.20;;;2.90;;
16524;SDS011;8375;33.594;-117.718;2024-01-10T05:22:13;5.60;;;2.90;;
16524;SDS011;8375;33.594;-117.718;2024-01-10T05:24:42;6.93;;;3.10;;
16524;SDS011;8375;33.594;-117.718;2024-01-10T05:27:11;6.33;;;3.23;;
16524;SDS011;8375;33.594;-117.718;2024-01-10T05:29:41;6.57;;;2.80;;
16524;SDS011;8375;33.594;-117.718;2024-01-10T05:32:09;6.70;;;2.80;;
16524;SDS011;8375;33.594;-117.718;2024-01-10T05:34:38;5.87;;;2.77;;
16524;SDS011;8375;33.594;-117.718;2024-01-10T05:37:07;4.83;;;3.13;;
16524;SDS011;8375;33.594;-117.718;2024-01-10T05:39:35;4.97;;;2.97;;
16524;SDS011;8375;33.594;-117.718;2024-01-10T05:42:04;6.03;;;2.80;;
16524;SDS011;8375;33.594;-117.718;2024-01-10T05:44:33;7.83;;;3.57;;
16524;SDS011;8375;33.594;-117.718;2024-01-10T05:47:03;8.77;;;3.40;;
16524;SDS011;8375;33.594;-117.718;2024-01-10T05:49:32;5.53;;;3.30;;
16524;SDS011;8375;33.594;-117.718;2024-01-10T05:52:01;10.23;;;3.20;;
16524;SDS011;8375;33.594;-117.718;2024-01-10T05:54:29;5.30;;;3.50;;
16524;SDS011;8375;33.594;-117.718;2024-01-10T05:56:58;6.03;;;3.10;;
16524;SDS011;8375;33.594;-117.718;2024-01-10T05:59:27;4.87;;;3.10;;
16524;SDS011;8375;33.594;-117.718;2024-01-10T06:01:56;6.23;;;3.20;;
16524;SDS011;8375;33.594;-117.718;2024-01-10T06:04:27;5.40;;;3.50;;
16524;SDS011;8375;33.594;-117.718;2024-01-10T06:06:57;9.03;;;3.47;;
16524;SDS011;8375;33.594;-117.718;2024-01-10T06:09:26;5.70;;;3.70;;
16524;SDS011;8375;33.594;-117.718;2024-01-10T06:11:55;5.13;;;2.90;;
16524;SDS011;8375;33.594;-117.718;2024-01-10T06:14:23;5.47;;;3.10;;
16524;SDS011;8375;33.594;-117.718;2024-01-10T06:16:52;6.53;;;3.40;;
16524;SDS011;8375;33.594;-117.718;2024-01-10T06:19:20;5.13;;;3.10;;
16524;SDS011;8375;33.594;-117.718;2024-01-10T06:21:51;6.67;;;2.90;;
16524;SDS011;8375;33.594;-117.718;2024-01-10T06:24:20;6.37;;;3.10;;
16524;SDS011;8375;33.594;-117.718;2024-01-10T06:26:48;4.17;;;3.13;;
16524;SDS011;8375;33.594;-117.718;2024-01-10T06:29:17;4.60;;;2.93;;
16524;SDS011;8375;33.594;-117.718;2024-01-10T06:31:46;10.57;;;3.37;;
16524;SDS011;8375;33.594;-117.718;2024-01-10T06:34:15;6.13;;;3.33;;
16524;SDS011;8375;33.594;-117.718;2024-01-10T06:36:43;7.20;;;3.43;;
16524;SDS011;8375;33.594;-117.718;2024-01-10T06:39:14;5.93;;;3.40;;
16524;SDS011;8375;33.594;-117.718;2024-01-10T06:41:46;7.10;;;3.50;;
16524;SDS011;8375;33.594;-117.718;2024-01-10T06:44:15;6.47;;;3.10;;
16524;SDS011;8375;33.594;-117.718;2024-01-10T06:46:44;6.23;;;3.43;;
16524;SDS011;8375;33.594;-117.718;2024-01-10T06:49:13;8.27;;;3.13;;
16524;SDS011;8375;33.594;-117.718;2024-01-10T06:51:42;4.23;;;3.23;;
16524;SDS011;8375;33.594;-117.718;2024-01-10T06:54:10;7.23;;;3.03;;
16524;SDS011;8375;33.594;-117.718;2024-01-10T06:56:41;6.93;;;3.27;;
16524;SDS011;8375;33.594;-117.718;2024-01-10T06:59:09;7.27;;;3.17;;
16524;SDS011;8375;33.594;-117.718;2024-01-10T07:01:37;7.43;;;3.23;;
16524;SDS011;8375;33.594;-117.718;2024-01-10T07:04:06;7.97;;;3.13;;
16524;SDS011;8375;33.594;-117.718;2024-01-10T07:06:35;6.23;;;3.17;;
16524;SDS011;8375;33.594;-117.718;2024-01-10T07:09:06;6.23;;;3.20;;
16524;SDS011;8375;33.594;-117.718;2024-01-10T07:11:34;5.60;;;3.03;;
16524;SDS011;8375;33.594;-117.718;2024-01-10T07:14:05;7.70;;;3.27;;
16524;SDS011;8375;33.594;-117.718;2024-01-10T07:16:33;7.10;;;3.30;;
16524;SDS011;8375;33.594;-117.718;2024-01-10T07:19:02;8.37;;;3.40;;
16524;SDS011;8375;33.594;-117.718;2024-01-10T07:21:30;5.07;;;2.80;;
16524;SDS011;8375;33.594;-117.718;2024-01-10T07:23:59;6.87;;;3.20;;
16524;SDS011;8375;33.594;-117.718;2024-01-10T07:26:28;4.97;;;2.73;;
16524;SDS011;8375;33.594;-117.718;2024-01-10T07:28:57;3.53;;;2.50;;
16524;SDS011;8375;33.594;-117.718;2024-01-10T07:31:29;5.30;;;2.97;;
16524;SDS011;8375;33.594;-117.718;2024-01-10T07:33:58;4.03;;;2.70;;
16524;SDS011;8375;33.594;-117.718;2024-01-10T07:36:26;4.43;;;2.40;;
16524;SDS011;8375;33.594;-117.718;2024-01-10T07:38:55;3.43;;;2.67;;
16524;SDS011;8375;33.594;-117.718;2024-01-10T07:41:24;8.07;;;2.97;;
16524;SDS011;8375;33.594;-117.718;2024-01-10T07:43:53;4.97;;;3.30;;
16524;SDS011;8375;33.594;-117.718;2024-01-10T07:46:21;5.17;;;2.60;;
16524;SDS011;8375;33.594;-117.718;2024-01-10T07:48:53;4.13;;;2.77;;
16524;SDS011;8375;33.594;-117.718;2024-01-10T07:51:21;4.37;;;2.20;;
16524;SDS011;8375;33.594;-117.718;2024-01-10T07:53:50;5.33;;;2.43;;
16524;SDS011;8375;33.594;-117.718;2024-01-10T07:56:18;4.73;;;2.30;;
16524;SDS011;8375;33.594;-117.718;2024-01-10T07:58:47;4.10;;;2.23;;
16524;SDS011;8375;33.594;-117.718;2024-01-10T08:01:16;6.90;;;2.40;;
16524;SDS011;8375;33.594;-117.718;2024-01-10T08:03:45;6.17;;;2.53;;
16524;SDS011;8375;33.594;-117.718;2024-01-10T08:06:15;5.10;;;2.20;;
16524;SDS011;8375;33.594;-117.718;2024-01-10T08:08:44;5.53;;;2.50;;
16524;SDS011;8375;33.594;-117.718;2024-01-10T08:11:13;4.03;;;2.37;;
16524;SDS011;8375;33.594;-117.718;2024-01-10T08:13:41;3.57;;;2.30;;
16524;SDS011;8375;33.594;-117.718;2024-01-10T08:16:10;4.90;;;2.40;;
16524;SDS011;8375;33.594;-117.718;2024-01-10T08:18:38;7.17;;;2.27;;
16524;SDS011;8375;33.594;-117.718;2024-01-10T08:21:07;4.20;;;2.00;;
16524;SDS011;8375;33.594;-117.718;2024-01-10T08:23:38;4.13;;;2.40;;
16524;SDS011;8375;33.594;-117.718;2024-01-10T08:26:06;4.33;;;2.20;;
16524;SDS011;8375;33.594;-117.718;2024-01-10T08:28:35;5.43;;;2.80;;
16524;SDS011;8375;33.594;-117.718;2024-01-10T08:31:04;5.80;;;2.90;;
16524;SDS011;8375;33.594;-117.718;2024-01-10T08:33:32;5.23;;;2.97;;
16524;SDS011;8375;33.594;-117.718;2024-01-10T08:36:01;5.40;;;2.37;;
16524;SDS011;8375;33.594;-117.718;2024-01-10T08:38:30;5.77;;;2.53;;
16524;SDS011;8375;33.594;-117.718;2024-01-10T08:41:00;6.17;;;2.60;;
16524;SDS011;8375;33.594;-117.718;2024-01-10T08:43:30;5.27;;;2.70;;
16524;SDS011;8375;33.594;-117.718;2024-01-10T08:45:59;4.70;;;2.97;;
16524;SDS011;8375;33.594;-117.718;2024-01-10T08:48:27;4.03;;;2.50;;
16524;SDS011;8375;33.594;-117.718;2024-01-10T08:50:56;4.10;;;2.30;;
16524;SDS011;8375;33.594;-117.718;2024-01-10T08:53:25;4.67;;;2.30;;
16524;SDS011;8375;33.594;-117.718;2024-01-10T08:55:53;3.00;;;2.27;;
16524;SDS011;8375;33.594;-117.718;2024-01-10T08:58:23;4.07;;;2.10;;
16524;SDS011;8375;33.594;-117.718;2024-01-10T09:00:52;4.03;;;2.63;;
16524;SDS011;8375;33.594;-117.718;2024-01-10T09:03:21;4.67;;;2.50;;
16524;SDS011;8375;33.594;-117.718;2024-01-10T09:05:49;2.60;;;1.80;;
16524;SDS011;8375;33.594;-117.718;2024-01-10T09:08:18;3.10;;;2.07;;
16524;SDS011;8375;33.594;-117.718;2024-01-10T09:10:46;3.30;;;1.90;;
16524;SDS011;8375;33.594;-117.718;2024-01-10T09:13:15;5.87;;;2.33;;
16524;SDS011;8375;33.594;-117.718;2024-01-10T09:15:45;2.73;;;2.00;;
16524;SDS011;8375;33.594;-117.718;2024-01-10T09:18:14;3.80;;;2.23;;
16524;SDS011;8375;33.594;-117.718;2024-01-10T09:20:43;4.00;;;2.07;;
16524;SDS011;8375;33.594;-117.718;2024-01-10T09:23:11;3.13;;;2.33;;
16524;SDS011;8375;33.594;-117.718;2024-01-10T09:25:41;3.43;;;2.20;;
16524;SDS011;8375;33.594;-117.718;2024-01-10T09:28:09;3.10;;;2.20;;
16524;SDS011;8375;33.594;-117.718;2024-01-10T09:30:38;3.67;;;2.10;;
16524;SDS011;8375;33.594;-117.718;2024-01-10T09:33:08;3.93;;;2.07;;
16524;SDS011;8375;33.594;-117.718;2024-01-10T09:35:38;3.13;;;2.00;;
16524;SDS011;8375;33.594;-117.718;2024-01-10T09:38:07;4.20;;;2.03;;
16524;SDS011;8375;33.594;-117.718;2024-01-10T09:40:36;2.50;;;1.83;;
16524;SDS011;8375;33.594;-117.718;2024-01-10T09:43:05;5.43;;;2.20;;
16524;SDS011;8375;33.594;-117.718;2024-01-10T09:45:35;6.57;;;2.10;;
16524;SDS011;8375;33.594;-117.718;2024-01-10T09:48:13;5.67;;;2.13;;
16524;SDS011;8375;33.594;-117.718;2024-01-10T09:50:42;7.33;;;2.17;;
16524;SDS011;8375;33.594;-117.718;2024-01-10T09:53:15;5.03;;;2.20;;
16524;SDS011;8375;33.594;-117.718;2024-01-10T09:55:50;2.60;;;2.00;;
16524;SDS011;8375;33.594;-117.718;2024-01-10T09:58:22;4.43;;;1.90;;
16524;SDS011;8375;33.594;-117.718;2024-01-10T10:00:52;3.03;;;2.13;;
16524;SDS011;8375;33.594;-117.718;2024-01-10T10:03:22;3.30;;;2.30;;
16524;SDS011;8375;33.594;-117.718;2024-01-10T10:05:51;6.63;;;2.40;;
16524;SDS011;8375;33.594;-117.718;2024-01-10T10:08:20;3.20;;;2.30;;
16524;SDS011;8375;33.594;-117.718;2024-01-10T10:10:49;3.57;;;1.97;;
16524;SDS011;8375;33.594;-117.718;2024-01-10T10:13:24;2.53;;;2.10;;
16524;SDS011;8375;33.594;-117.718;2024-01-10T10:15:59;3.70;;;2.60;;
16524;SDS011;8375;33.594;-117.718;2024-01-10T10:18:30;2.60;;;2.20;;
16524;SDS011;8375;33.594;-117.718;2024-01-10T10:21:09;3.83;;;1.87;;
16524;SDS011;8375;33.594;-117.718;2024-01-10T10:23:39;4.57;;;2.03;;
16524;SDS011;8375;33.594;-117.718;2024-01-10T10:26:11;3.47;;;1.90;;
16524;SDS011;8375;33.594;-117.718;2024-01-10T10:28:47;4.70;;;2.20;;
16524;SDS011;8375;33.594;-117.718;2024-01-10T10:31:16;3.17;;;1.80;;
16524;SDS011;8375;33.594;-117.718;2024-01-10T10:33:48;3.70;;;1.77;;
16524;SDS011;8375;33.594;-117.718;2024-01-10T10:36:17;2.83;;;1.60;;
16524;SDS011;8375;33.594;-117.718;2024-01-10T10:38:46;2.00;;;1.80;;
16524;SDS011;8375;33.594;-117.718;2024-01-10T10:41:15;4.57;;;1.70;;
16524;SDS011;8375;33.594;-117.718;2024-01-10T10:43:46;3.00;;;1.70;;
16524;SDS011;8375;33.594;-117.718;2024-01-10T10:46:17;4.47;;;1.80;;
16524;SDS011;8375;33.594;-117.718;2024-01-10T10:48:49;2.27;;;1.77;;
16524;SDS011;8375;33.594;-117.718;2024-01-10T10:51:19;4.83;;;1.60;;
16524;SDS011;8375;33.594;-117.718;2024-01-10T10:53:55;3.20;;;2.13;;
16524;SDS011;8375;33.594;-117.718;2024-01-10T10:56:25;5.37;;;2.00;;
16524;SDS011;8375;33.594;-117.718;2024-01-10T10:58:57;4.47;;;1.83;;
16524;SDS011;8375;33.594;-117.718;2024-01-10T11:01:28;4.43;;;2.37;;
16524;SDS011;8375;33.594;-117.718;2024-01-10T11:03:58;3.43;;;1.80;;
16524;SDS011;8375;33.594;-117.718;2024-01-10T11:06:27;4.33;;;1.67;;
16524;SDS011;8375;33.594;-117.718;2024-01-10T11:08:57;3.93;;;1.97;;
16524;SDS011;8375;33.594;-117.718;2024-01-10T11:11:34;3.40;;;2.40;;
16524;SDS011;8375;33.594;-117.718;2024-01-10T11:14:18;2.33;;;2.10;;
16524;SDS011;8375;33.594;-117.718;2024-01-10T11:22:54;3.53;;;2.33;;
16524;SDS011;8375;33.594;-117.718;2024-01-10T11:25:47;3.30;;;2.33;;
16524;SDS011;8375;33.594;-117.718;2024-01-10T11:28:15;2.50;;;1.90;;
16524;SDS011;8375;33.594;-117.718;2024-01-10T11:30:48;3.50;;;1.60;;
16524;SDS011;8375;33.594;-117.718;2024-01-10T11:33:19;3.67;;;1.83;;
16524;SDS011;8375;33.594;-117.718;2024-01-10T11:36:12;2.37;;;1.70;;
16524;SDS011;8375;33.594;-117.718;2024-01-10T11:38:42;2.83;;;2.20;;
16524;SDS011;8375;33.594;-117.718;2024-01-10T11:41:12;5.03;;;1.73;;
16524;SDS011;8375;33.594;-117.718;2024-01-10T11:43:42;3.77;;;1.60;;
16524;SDS011;8375;33.594;-117.718;2024-01-10T11:46:12;4.83;;;1.33;;
16524;SDS011;8375;33.594;-117.718;2024-01-10T11:48:41;2.17;;;1.50;;
16524;SDS011;8375;33.594;-117.718;2024-01-10T11:53:46;5.77;;;2.20;;
16524;SDS011;8375;33.594;-117.718;2024-01-10T11:56:16;3.97;;;1.93;;
16524;SDS011;8375;33.594;-117.718;2024-01-10T11:58:54;2.67;;;1.70;;
16524;SDS011;8375;33.594;-117.718;2024-01-10T12:01:28;2.83;;;1.53;;
16524;SDS011;8375;33.594;-117.718;2024-01-10T12:03:57;3.57;;;1.50;;
16524;SDS011;8375;33.594;-117.718;2024-01-10T12:06:26;2.63;;;1.70;;
16524;SDS011;8375;33.594;-117.718;2024-01-10T12:08:56;2.73;;;1.83;;
16524;SDS011;8375;33.594;-117.718;2024-01-10T12:11:25;2.73;;;1.67;;
16524;SDS011;8375;33.594;-117.718;2024-01-10T12:13:54;2.13;;;1.70;;
16524;SDS011;8375;33.594;-117.718;2024-01-10T12:16:23;2.30;;;1.70;;
16524;SDS011;8375;33.594;-117.718;2024-01-10T12:18:52;3.90;;;2.10;;
16524;SDS011;8375;33.594;-117.718;2024-01-10T12:21:20;4.10;;;1.60;;
16524;SDS011;8375;33.594;-117.718;2024-01-10T12:23:49;2.93;;;1.80;;
16524;SDS011;8375;33.594;-117.718;2024-01-10T12:26:19;3.93;;;1.80;;
16524;SDS011;8375;33.594;-117.718;2024-01-10T12:28:53;3.20;;;1.77;;
16524;SDS011;8375;33.594;-117.718;2024-01-10T12:31:23;3.37;;;1.90;;
16524;SDS011;8375;33.594;-117.718;2024-01-10T12:33:55;1.93;;;1.70;;
16524;SDS011;8375;33.594;-117.718;2024-01-10T12:36:23;4.07;;;2.10;;
16524;SDS011;8375;33.594;-117.718;2024-01-10T12:38:52;7.10;;;1.87;;
16524;SDS011;8375;33.594;-117.718;2024-01-10T12:41:22;3.83;;;1.70;;
16524;SDS011;8375;33.594;-117.718;2024-01-10T12:43:52;1.97;;;1.60;;
16524;SDS011;8375;33.594;-117.718;2024-01-10T12:46:21;4.45;;;1.70;;
16524;SDS011;8375;33.594;-117.718;2024-01-10T12:48:58;3.10;;;1.80;;
16524;SDS011;8375;33.594;-117.718;2024-01-10T12:51:27;2.63;;;1.73;;
16524;SDS011;8375;33.594;-117.718;2024-01-10T12:53:57;3.00;;;1.83;;
16524;SDS011;8375;33.594;-117.718;2024-01-10T12:56:27;3.73;;;1.47;;
16524;SDS011;8375;33.594;-117.718;2024-01-10T12:58:56;3.73;;;1.70;;
16524;SDS011;8375;33.594;-117.718;2024-01-10T13:01:26;4.93;;;1.70;;
16524;SDS011;8375;33.594;-117.718;2024-01-10T13:03:54;3.90;;;1.60;;
16524;SDS011;8375;33.594;-117.718;2024-01-10T13:06:24;4.97;;;1.90;;
16524;SDS011;8375;33.594;-117.718;2024-01-10T13:08:52;3.63;;;2.00;;
16524;SDS011;8375;33.594;-117.718;2024-01-10T13:11:21;2.93;;;1.73;;
16524;SDS011;8375;33.594;-117.718;2024-01-10T13:13:51;3.70;;;1.97;;
16524;SDS011;8375;33.594;-117.718;2024-01-10T13:16:20;4.03;;;2.00;;
16524;SDS011;8375;33.594;-117.718;2024-01-10T13:18:49;2.90;;;2.03;;
16524;SDS011;8375;33.594;-117.718;2024-01-10T13:21:19;3.77;;;1.67;;
16524;SDS011;8375;33.594;-117.718;2024-01-10T13:23:47;2.43;;;1.87;;
16524;SDS011;8375;33.594;-117.718;2024-01-10T13:26:16;2.00;;;1.80;;
16524;SDS011;8375;33.594;-117.718;2024-01-10T13:28:45;2.80;;;2.00;;
16524;SDS011;8375;33.594;-117.718;2024-01-10T13:31:16;4.87;;;2.70;;
16524;SDS011;8375;33.594;-117.718;2024-01-10T13:33:44;4.53;;;2.80;;
16524;SDS011;8375;33.594;-117.718;2024-01-10T13:36:13;4.07;;;2.83;;
16524;SDS011;8375;33.594;-117.718;2024-01-10T13:38:42;6.60;;;2.93;;
16524;SDS011;8375;33.594;-117.718;2024-01-10T13:41:10;4.70;;;2.70;;
16524;SDS011;8375;33.594;-117.718;2024-01-10T13:43:39;4.07;;;2.50;;
16524;SDS011;8375;33.594;-117.718;2024-01-10T13:46:07;3.70;;;2.77;;
16524;SDS011;8375;33.594;-117.718;2024-01-10T13:48:38;3.57;;;2.70;;
16524;SDS011;8375;33.594;-117.718;2024-01-10T13:51:07;7.57;;;3.03;;
16524;SDS011;8375;33.594;-117.718;2024-01-10T13:53:36;6.20;;;2.50;;
16524;SDS011;8375;33.594;-117.718;2024-01-10T13:56:04;5.13;;;2.73;;
16524;SDS011;8375;33.594;-117.718;2024-01-10T13:58:34;6.83;;;3.00;;
16524;SDS011;8375;33.594;-117.718;2024-01-10T14:01:03;4.10;;;3.17;;
16524;SDS011;8375;33.594;-117.718;2024-01-10T14:03:32;6.50;;;2.83;;
16524;SDS011;8375;33.594;-117.718;2024-01-10T14:06:03;5.70;;;2.83;;
16524;SDS011;8375;33.594;-117.718;2024-01-10T14:08:32;4.37;;;3.03;;
16524;SDS011;8375;33.594;-117.718;2024-01-10T14:11:03;4.83;;;3.03;;
16524;SDS011;8375;33.594;-117.718;2024-01-10T14:13:32;4.43;;;2.87;;
16524;SDS011;8375;33.594;-117.718;2024-01-10T14:16:00;4.00;;;2.70;;
16524;SDS011;8375;33.594;-117.718;2024-01-10T14:18:29;3.60;;;2.50;;
16524;SDS011;8375;33.594;-117.718;2024-01-10T14:20:58;3.20;;;2.70;;
16524;SDS011;8375;33.594;-117.718;2024-01-10T14:23:28;4.13;;;2.90;;
16524;SDS011;8375;33.594;-117.718;2024-01-10T14:25:57;4.27;;;2.83;;
16524;SDS011;8375;33.594;-117.718;2024-01-10T14:28:25;4.77;;;3.20;;
16524;SDS011;8375;33.594;-117.718;2024-01-10T14:30:54;4.83;;;2.90;;
16524;SDS011;8375;33.594;-117.718;2024-01-10T14:33:23;5.07;;;3.37;;
16524;SDS011;8375;33.594;-117.718;2024-01-10T14:35:51;5.20;;;3.23;;
16524;SDS011;8375;33.594;-117.718;2024-01-10T14:38:20;4.90;;;3.33;;
16524;SDS011;8375;33.594;-117.718;2024-01-10T14:40:50;5.47;;;3.13;;
16524;SDS011;8375;33.594;-117.718;2024-01-10T14:43:19;4.50;;;2.90;;
16524;SDS011;8375;33.594;-117.718;2024-01-10T14:45:48;5.00;;;3.20;;